createdAt,value
2018-06-12T00:00:04.346Z,1999.90
2018-06-12T00:01:04.344Z,1999.90
2018-06-12T00:02:04.342Z,1999.90
2018-06-12T00:03:04.338Z,1999.90
2018-06-12T00:04:04.337Z,1999.90
2018-06-12T00:05:04.337Z,1999.90
2018-06-12T00:06:04.345Z,1999.90
2018-06-12T00:07:04.340Z,1999.90
2018-06-12T00:08:04.342Z,1999.90
2018-06-12T00:09:04.337Z,1999.90
2018-06-12T00:10:04.333Z,1999.90
2018-06-12T00:11:04.330Z,1999.90
2018-06-12T00:12:04.335Z,1999.90
2018-06-12T00:13:04.340Z,1999.90
2018-06-12T00:14:04.329Z,1999.90
2018-06-12T00:15:04.327Z,1999.90
2018-06-12T00:16:04.324Z,1999.90
2018-06-12T00:17:04.326Z,1999.90
2018-06-12T00:18:04.329Z,1999.90
2018-06-12T00:19:04.329Z,43.20
2018-06-12T00:20:04.327Z,21.70
2018-06-12T00:21:04.328Z,21.60
2018-06-12T00:22:04.320Z,22.00
2018-06-12T00:23:04.322Z,23.50
2018-06-12T00:24:04.317Z,22.30
2018-06-12T00:25:04.317Z,20.90
2018-06-12T00:26:04.320Z,23.70
2018-06-12T00:27:04.318Z,21.60
2018-06-12T00:28:04.314Z,21.50
2018-06-12T00:29:04.313Z,21.70
2018-06-12T00:30:04.316Z,22.00
2018-06-12T00:31:04.315Z,22.50
2018-06-12T00:32:04.314Z,22.60
2018-06-12T00:33:04.314Z,22.30
2018-06-12T00:34:04.311Z,22.10
2018-06-12T00:35:04.306Z,22.90
2018-06-12T00:36:04.304Z,22.10
2018-06-12T00:37:04.304Z,22.90
2018-06-12T00:38:04.307Z,22.00
2018-06-12T00:39:04.306Z,22.20
2018-06-12T00:40:04.304Z,23.30
2018-06-12T00:41:04.303Z,22.80
2018-06-12T00:42:04.300Z,26.70
2018-06-12T00:43:04.298Z,22.70
2018-06-12T00:44:04.299Z,22.70
2018-06-12T00:45:04.299Z,22.90
2018-06-12T00:46:04.294Z,22.70
2018-06-12T00:47:04.290Z,21.90
2018-06-12T00:48:04.289Z,22.60
2018-06-12T00:49:04.290Z,22.50
2018-06-12T00:50:04.292Z,22.20
2018-06-12T00:51:04.292Z,22.10
2018-06-12T00:52:04.289Z,22.90
2018-06-12T00:53:04.288Z,21.90
2018-06-12T00:54:04.282Z,22.30
2018-06-12T00:55:04.280Z,22.60
2018-06-12T00:56:04.283Z,22.70
2018-06-12T00:57:04.278Z,22.20
2018-06-12T00:58:04.282Z,21.80
2018-06-12T00:59:04.280Z,23.20
2018-06-12T01:00:04.273Z,23.20
2018-06-12T01:01:04.275Z,23.20
2018-06-12T01:02:04.282Z,22.40
2018-06-12T01:03:04.275Z,23.50
2018-06-12T01:04:04.273Z,22.90
2018-06-12T01:05:04.271Z,22.50
2018-06-12T01:06:04.267Z,24.20
2018-06-12T01:07:04.263Z,20.50
2018-06-12T01:08:04.262Z,23.50
2018-06-12T01:09:04.265Z,23.00
2018-06-12T01:10:04.264Z,22.20
2018-06-12T01:11:04.261Z,24.80
2018-06-12T01:12:04.261Z,23.20
2018-06-12T01:13:04.260Z,25.20
2018-06-12T01:14:04.253Z,25.80
2018-06-12T01:15:04.252Z,23.40
2018-06-12T01:16:04.255Z,23.10
2018-06-12T01:17:04.255Z,23.00
2018-06-12T01:18:04.248Z,23.60
2018-06-12T01:19:04.252Z,23.20
2018-06-12T01:20:04.244Z,23.30
2018-06-12T01:21:04.245Z,24.70
2018-06-12T01:22:04.246Z,23.60
2018-06-12T01:23:04.270Z,23.00
2018-06-12T01:24:04.243Z,25.20
2018-06-12T01:25:04.244Z,23.90
2018-06-12T01:26:04.238Z,24.70
2018-06-12T01:27:04.234Z,23.70
2018-06-12T01:28:04.235Z,24.40
2018-06-12T01:29:04.232Z,24.70
2018-06-12T01:30:04.236Z,23.10
2018-06-12T01:31:04.235Z,24.50
2018-06-12T01:32:04.227Z,23.20
2018-06-12T01:33:04.226Z,24.00
2018-06-12T01:34:04.231Z,23.80
2018-06-12T01:35:04.227Z,24.00
2018-06-12T01:36:04.225Z,23.90
2018-06-12T01:37:04.225Z,24.80
2018-06-12T01:38:04.218Z,24.40
2018-06-12T01:39:04.216Z,25.30
2018-06-12T01:40:04.216Z,23.70
2018-06-12T01:41:04.214Z,23.40
2018-06-12T01:42:04.219Z,24.10
2018-06-12T01:43:04.214Z,24.90
2018-06-12T01:44:04.214Z,25.20
2018-06-12T01:45:04.212Z,24.20
2018-06-12T01:46:04.206Z,24.50
2018-06-12T01:47:04.206Z,24.70
2018-06-12T01:48:04.208Z,24.90
2018-06-12T01:49:04.207Z,24.10
2018-06-12T01:50:04.200Z,24.30
2018-06-12T01:51:04.200Z,24.80
2018-06-12T01:52:04.196Z,24.60
2018-06-12T01:53:04.195Z,24.60
2018-06-12T01:54:04.199Z,24.30
2018-06-12T01:55:04.196Z,24.20
2018-06-12T01:56:04.199Z,23.80
2018-06-12T01:57:04.193Z,24.40
2018-06-12T01:58:04.187Z,25.90
2018-06-12T01:59:04.185Z,25.00
2018-06-12T02:00:04.186Z,24.50
2018-06-12T02:01:04.183Z,25.20
2018-06-12T02:02:04.185Z,24.30
2018-06-12T02:03:04.182Z,25.40
2018-06-12T02:04:04.176Z,24.30
2018-06-12T02:05:04.175Z,25.30
2018-06-12T02:06:04.179Z,24.40
2018-06-12T02:07:04.175Z,24.90
2018-06-12T02:08:04.177Z,24.70
2018-06-12T02:09:04.174Z,26.20
2018-06-12T02:13:31.250Z,25.80
2018-06-12T02:14:31.284Z,31.40
2018-06-12T02:15:31.242Z,26.70
2018-06-12T02:16:31.239Z,26.00
2018-06-12T02:17:31.238Z,26.40
2018-06-12T02:18:31.240Z,25.00
2018-06-12T02:19:31.238Z,25.90
2018-06-12T02:20:31.232Z,25.00
2018-06-12T02:21:31.231Z,25.90
2018-06-12T02:22:31.234Z,26.90
2018-06-12T02:23:31.231Z,28.60
2018-06-12T02:24:31.230Z,25.50
2018-06-12T02:25:31.228Z,25.30
2018-06-12T02:26:31.222Z,25.30
2018-06-12T02:27:31.220Z,26.70
2018-06-12T02:28:31.221Z,25.90
2018-06-12T02:29:31.216Z,26.50
2018-06-12T02:30:31.220Z,25.70
2018-06-12T02:31:31.218Z,26.10
2018-06-12T02:32:31.214Z,29.60
2018-06-12T02:33:31.213Z,26.70
2018-06-12T02:34:31.207Z,26.60
2018-06-12T02:35:31.204Z,26.20
2018-06-12T02:36:31.210Z,26.90
2018-06-12T02:37:31.205Z,28.90
2018-06-12T02:38:31.201Z,27.40
2018-06-12T02:39:31.197Z,28.10
2018-06-12T02:40:31.195Z,27.90
2018-06-12T02:41:31.195Z,28.20
2018-06-12T02:42:31.196Z,31.40
2018-06-12T02:43:31.194Z,29.00
2018-06-12T02:44:31.206Z,30.00
2018-06-12T02:45:31.191Z,29.30
2018-06-12T02:46:31.184Z,30.50
2018-06-12T02:47:31.184Z,29.80
2018-06-12T02:48:31.180Z,29.00
2018-06-12T02:49:31.178Z,30.40
2018-06-12T02:50:31.181Z,29.40
2018-06-12T02:51:31.178Z,30.20
2018-06-12T02:52:31.172Z,34.90
2018-06-12T02:53:31.170Z,32.60
2018-06-12T02:54:31.173Z,33.10
2018-06-12T02:55:31.179Z,31.10
2018-06-12T02:56:31.172Z,31.30
2018-06-12T02:57:31.169Z,31.70
2018-06-12T02:58:31.161Z,30.60
2018-06-12T02:59:31.159Z,31.00
2018-06-12T03:00:31.158Z,32.00
2018-06-12T03:01:31.163Z,31.60
2018-06-12T03:02:31.158Z,33.90
2018-06-12T03:03:31.160Z,33.60
2018-06-12T03:04:31.152Z,32.90
2018-06-12T03:05:31.156Z,32.50
2018-06-12T03:06:31.145Z,32.90
2018-06-12T03:07:31.142Z,34.10
2018-06-12T03:08:31.146Z,33.40
2018-06-12T03:09:31.170Z,34.30
2018-06-12T03:10:31.145Z,38.40
2018-06-12T03:11:31.133Z,34.50
2018-06-12T03:12:31.146Z,33.30
2018-06-12T03:13:31.130Z,35.30
2018-06-12T03:14:31.139Z,33.70
2018-06-12T03:15:31.135Z,33.80
2018-06-12T03:16:31.134Z,38.70
2018-06-12T03:17:31.125Z,36.60
2018-06-12T03:18:31.121Z,34.60
2018-06-12T03:19:31.117Z,36.50
2018-06-12T03:20:31.114Z,34.40
2018-06-12T03:21:31.113Z,34.50
2018-06-12T03:22:31.115Z,36.20
2018-06-12T03:23:31.113Z,34.60
2018-06-12T03:24:31.104Z,33.60
2018-06-12T03:25:31.105Z,33.80
2018-06-12T03:26:31.108Z,36.50
2018-06-12T03:27:31.104Z,35.40
2018-06-12T03:28:31.102Z,37.70
2018-06-12T03:29:31.101Z,40.20
2018-06-12T03:30:31.100Z,40.00
2018-06-12T03:31:31.091Z,40.80
2018-06-12T03:32:31.088Z,35.10
2018-06-12T03:33:31.086Z,35.50
2018-06-12T03:34:31.088Z,34.90
2018-06-12T03:35:31.086Z,36.90
2018-06-12T03:36:31.085Z,35.50
2018-06-12T03:37:31.083Z,41.60
2018-06-12T03:38:31.076Z,37.30
2018-06-12T03:39:31.080Z,34.20
2018-06-12T03:40:31.076Z,35.80
2018-06-12T03:41:31.074Z,46.70
2018-06-12T03:42:31.066Z,37.10
2018-06-12T03:43:31.066Z,39.50
2018-06-12T03:44:31.062Z,37.20
2018-06-12T03:45:31.059Z,37.80
2018-06-12T03:46:31.062Z,39.60
2018-06-12T03:47:31.059Z,40.30
2018-06-12T03:48:31.058Z,40.10
2018-06-12T03:49:31.056Z,39.00
2018-06-12T03:50:31.049Z,41.70
2018-06-12T03:51:31.046Z,40.70
2018-06-12T03:52:31.044Z,40.20
2018-06-12T03:53:31.043Z,39.00
2018-06-12T03:54:31.046Z,43.50
2018-06-12T03:55:31.042Z,41.90
2018-06-12T03:56:31.035Z,39.90
2018-06-12T03:57:31.043Z,43.50
2018-06-12T03:58:31.036Z,41.40
2018-06-12T03:59:31.034Z,41.00
2018-06-12T04:00:31.031Z,41.30
2018-06-12T04:01:31.030Z,43.70
2018-06-12T04:02:31.023Z,42.00
2018-06-12T04:03:31.020Z,43.70
2018-06-12T04:04:31.018Z,43.40
2018-06-12T04:05:31.015Z,44.00
2018-06-12T04:06:31.018Z,47.80
2018-06-12T04:07:31.015Z,43.30
2018-06-12T04:08:31.014Z,46.10
2018-06-12T04:09:31.018Z,48.10
2018-06-12T04:10:31.005Z,50.80
2018-06-12T04:11:31.002Z,46.10
2018-06-12T04:12:31.005Z,46.60
2018-06-12T04:13:31.003Z,44.90
2018-06-12T04:14:30.996Z,51.60
2018-06-12T04:15:30.992Z,51.80
2018-06-12T04:16:30.992Z,45.40
2018-06-12T04:17:30.989Z,44.30
2018-06-12T04:18:30.990Z,42.70
2018-06-12T04:19:30.988Z,42.80
2018-06-12T04:20:31.007Z,45.00
2018-06-12T04:21:30.984Z,42.30
2018-06-12T04:22:30.978Z,42.00
2018-06-12T04:23:30.976Z,45.40
2018-06-12T04:24:30.972Z,44.20
2018-06-12T04:25:30.971Z,44.70
2018-06-12T04:26:30.973Z,38.80
2018-06-12T04:27:30.971Z,42.80
2018-06-12T04:28:30.964Z,42.20
2018-06-12T04:29:30.961Z,41.00
2018-06-12T04:30:30.965Z,42.20
2018-06-12T04:31:30.961Z,45.80
2018-06-12T04:32:30.960Z,40.60
2018-06-12T04:33:30.959Z,37.90
2018-06-12T04:34:30.952Z,44.20
2018-06-12T04:35:30.951Z,44.10
2018-06-12T04:36:30.947Z,44.70
2018-06-12T04:37:30.947Z,44.80
2018-06-12T04:38:30.949Z,40.10
2018-06-12T04:39:30.946Z,40.60
2018-06-12T04:40:30.943Z,43.00
2018-06-12T04:41:30.942Z,44.30
2018-06-12T04:42:30.936Z,43.00
2018-06-12T04:43:30.933Z,41.80
2018-06-12T04:44:30.935Z,38.80
2018-06-12T04:45:30.939Z,45.00
2018-06-12T04:46:30.928Z,39.50
2018-06-12T04:47:30.925Z,41.00
2018-06-12T04:48:30.924Z,40.90
2018-06-12T04:49:30.922Z,40.40
2018-06-12T04:50:30.925Z,38.70
2018-06-12T04:51:30.922Z,39.50
2018-06-12T04:52:30.920Z,38.10
2018-06-12T04:53:30.921Z,38.60
2018-06-12T04:54:30.943Z,38.00
2018-06-12T04:55:30.908Z,36.40
2018-06-12T04:56:30.907Z,42.10
2018-06-12T04:57:30.905Z,36.10
2018-06-12T04:58:30.910Z,37.10
2018-06-12T04:59:30.903Z,38.10
2018-06-12T05:00:30.900Z,40.50
2018-06-12T05:01:30.896Z,39.00
2018-06-12T05:02:30.899Z,39.00
2018-06-12T05:03:30.896Z,42.50
2018-06-12T05:04:30.896Z,44.00
2018-06-12T05:05:30.893Z,43.60
2018-06-12T05:06:30.888Z,46.00
2018-06-12T05:07:30.888Z,42.90
2018-06-12T05:08:30.882Z,45.80
2018-06-12T05:09:30.880Z,46.20
2018-06-12T05:10:30.892Z,43.40
2018-06-12T05:11:30.882Z,43.00
2018-06-12T05:12:30.880Z,39.40
2018-06-12T05:13:30.877Z,43.40
2018-06-12T05:14:30.871Z,44.10
2018-06-12T05:15:30.868Z,43.40
2018-06-12T05:16:30.871Z,45.30
2018-06-12T05:17:30.869Z,46.20
2018-06-12T05:18:30.865Z,45.60
2018-06-12T05:19:30.862Z,42.80
2018-06-12T05:20:30.861Z,44.10
2018-06-12T05:21:30.859Z,46.30
2018-06-12T05:22:30.861Z,49.00
2018-06-12T05:23:30.860Z,46.80
2018-06-12T05:24:30.857Z,45.00
2018-06-12T05:25:30.914Z,43.70
2018-06-12T05:26:30.850Z,47.40
2018-06-12T05:27:30.848Z,45.50
2018-06-12T05:28:30.847Z,44.60
2018-06-12T05:29:30.846Z,44.00
2018-06-12T05:30:30.851Z,45.50
2018-06-12T05:31:30.849Z,53.00
2018-06-12T05:32:30.843Z,55.30
2018-06-12T05:33:30.841Z,53.30
2018-06-12T05:34:30.846Z,51.10
2018-06-12T05:35:30.846Z,56.40
2018-06-12T05:36:30.843Z,53.30
2018-06-12T05:37:30.843Z,53.20
2018-06-12T05:38:30.840Z,50.10
2018-06-12T05:39:30.837Z,56.40
2018-06-12T05:40:30.837Z,54.80
2018-06-12T05:41:30.837Z,55.80
2018-06-12T05:42:30.841Z,59.60
2018-06-12T05:43:30.843Z,55.20
2018-06-12T05:44:30.845Z,50.80
2018-06-12T05:45:30.841Z,51.10
2018-06-12T05:46:30.836Z,49.00
2018-06-12T05:47:30.834Z,56.40
2018-06-12T05:48:30.839Z,54.20
2018-06-12T05:49:30.841Z,52.80
2018-06-12T05:50:30.833Z,49.60
2018-06-12T05:51:30.832Z,50.60
2018-06-12T05:52:30.832Z,52.10
2018-06-12T05:53:30.835Z,57.10
2018-06-12T05:54:30.836Z,49.20
2018-06-12T05:55:30.835Z,50.10
2018-06-12T05:56:30.836Z,47.00
2018-06-12T05:57:30.836Z,51.20
2018-06-12T05:58:30.830Z,50.40
2018-06-12T05:59:30.830Z,49.70
2018-06-12T06:00:30.830Z,46.40
2018-06-12T06:01:30.831Z,49.30
2018-06-12T06:02:30.834Z,51.50
2018-06-12T06:03:30.834Z,51.40
2018-06-12T06:04:30.827Z,48.00
2018-06-12T06:05:30.827Z,46.50
2018-06-12T06:06:30.833Z,49.80
2018-06-12T06:07:30.831Z,45.20
2018-06-12T06:08:30.832Z,45.50
2018-06-12T06:09:30.833Z,47.20
2018-06-12T06:10:30.826Z,50.40
2018-06-12T06:11:30.824Z,46.30
2018-06-12T06:12:30.823Z,47.90
2018-06-12T06:13:30.823Z,45.70
2018-06-12T06:14:30.827Z,48.80
2018-06-12T06:15:30.829Z,48.70
2018-06-12T06:16:30.826Z,50.00
2018-06-12T06:17:30.827Z,46.90
2018-06-12T06:18:30.822Z,49.50
2018-06-12T06:19:30.820Z,50.20
2018-06-12T06:20:30.826Z,51.00
2018-06-12T06:21:30.825Z,48.00
2018-06-12T06:22:30.885Z,44.40
2018-06-12T06:23:30.820Z,49.40
2018-06-12T06:24:30.819Z,45.90
2018-06-12T06:25:30.819Z,45.30
2018-06-12T06:26:30.823Z,47.70
2018-06-12T06:27:30.824Z,42.80
2018-06-12T06:28:30.829Z,47.30
2018-06-12T06:29:30.822Z,42.20
2018-06-12T06:30:30.818Z,41.10
2018-06-12T06:31:30.817Z,41.60
2018-06-12T06:32:30.817Z,40.10
2018-06-12T06:33:30.817Z,38.20
2018-06-12T06:34:30.823Z,36.70
2018-06-12T06:35:30.821Z,37.80
2018-06-12T06:36:30.817Z,39.50
2018-06-12T06:37:30.821Z,42.20
2018-06-12T06:38:30.821Z,40.20
2018-06-12T06:39:30.821Z,35.40
2018-06-12T06:40:30.822Z,40.00
2018-06-12T06:41:30.823Z,39.70
2018-06-12T06:42:30.815Z,40.20
2018-06-12T06:43:30.814Z,38.90
2018-06-12T06:44:30.814Z,36.90
2018-06-12T06:45:30.816Z,37.90
2018-06-12T06:46:30.818Z,34.70
2018-06-12T06:47:30.817Z,34.50
2018-06-12T06:48:30.818Z,35.20
2018-06-12T06:49:30.817Z,35.60
2018-06-12T06:50:30.812Z,33.90
2018-06-12T06:51:30.811Z,34.40
2018-06-12T06:52:30.817Z,35.60
2018-06-12T06:53:30.856Z,34.60
2018-06-12T06:54:30.811Z,35.80
2018-06-12T06:55:30.812Z,34.50
2018-06-12T06:56:30.810Z,35.10
2018-06-12T06:57:30.809Z,35.10
2018-06-12T06:58:30.814Z,37.00
2018-06-12T06:59:30.813Z,37.60
2018-06-12T07:00:30.814Z,35.30
2018-06-12T07:01:30.813Z,33.40
2018-06-12T07:02:30.808Z,34.70
2018-06-12T07:03:30.809Z,35.90
2018-06-12T07:04:30.810Z,33.00
2018-06-12T07:05:30.807Z,33.70
2018-06-12T07:06:30.813Z,32.30
2018-06-12T07:07:30.811Z,33.40
2018-06-12T07:08:30.808Z,32.50
2018-06-12T07:09:30.805Z,31.00
2018-06-12T07:10:30.812Z,31.80
2018-06-12T07:11:30.810Z,32.70
2018-06-12T07:12:30.809Z,35.80
2018-06-12T07:13:30.811Z,31.90
2018-06-12T07:14:30.805Z,32.80
2018-06-12T07:15:30.804Z,31.30
2018-06-12T07:16:30.804Z,30.90
2018-06-12T07:17:30.805Z,31.00
2018-06-12T07:18:30.808Z,29.90
2018-06-12T07:19:30.808Z,30.30
2018-06-12T07:20:30.807Z,31.00
2018-06-12T07:21:30.809Z,29.70
2018-06-12T07:22:30.803Z,29.40
2018-06-12T07:23:30.803Z,30.70
2018-06-12T07:24:30.810Z,30.40
2018-06-12T07:25:30.808Z,31.30
2018-06-12T07:26:30.803Z,29.00
2018-06-12T07:27:30.802Z,30.10
2018-06-12T07:28:30.802Z,30.00
2018-06-12T07:29:30.807Z,29.90
2018-06-12T07:30:30.807Z,31.30
2018-06-12T07:31:30.806Z,30.60
2018-06-12T07:32:30.808Z,31.10
2018-06-12T07:33:30.808Z,30.80
2018-06-12T07:34:30.803Z,32.70
2018-06-12T07:35:30.802Z,32.50
2018-06-12T07:36:30.803Z,31.80
2018-06-12T07:37:30.870Z,32.60
2018-06-12T07:38:30.811Z,35.70
2018-06-12T07:39:30.808Z,31.20
2018-06-12T07:40:30.804Z,32.30
2018-06-12T07:41:30.804Z,33.80
2018-06-12T07:42:30.809Z,34.10
2018-06-12T07:43:30.843Z,33.90
2018-06-12T07:44:30.811Z,42.20
2018-06-12T07:45:30.811Z,36.40
2018-06-12T07:46:30.807Z,33.80
2018-06-12T07:47:30.808Z,32.30
2018-06-12T07:48:30.810Z,33.20
2018-06-12T07:49:30.809Z,32.80
2018-06-12T07:50:30.814Z,33.20
2018-06-12T07:51:30.815Z,33.10
2018-06-12T07:52:30.814Z,32.70
2018-06-12T07:53:30.816Z,33.20
2018-06-12T07:54:30.814Z,33.60
2018-06-12T07:55:30.816Z,33.70
2018-06-12T07:56:30.822Z,31.50
2018-06-12T07:57:30.820Z,31.90
2018-06-12T07:58:30.820Z,32.20
2018-06-12T07:59:30.818Z,31.60
2018-06-12T08:00:30.822Z,32.40
2018-06-12T08:01:30.820Z,31.00
2018-06-12T08:02:30.828Z,29.70
2018-06-12T08:03:30.830Z,31.90
2018-06-12T08:04:30.830Z,31.50
2018-06-12T08:05:30.832Z,30.20
2018-06-12T08:06:30.827Z,30.30
2018-06-12T08:07:30.831Z,31.00
2018-06-12T08:08:30.830Z,30.60
2018-06-12T08:09:30.832Z,31.70
2018-06-12T08:10:30.838Z,29.70
2018-06-12T08:11:30.839Z,30.80
2018-06-12T08:12:30.836Z,31.60
2018-06-12T08:13:30.838Z,31.90
2018-06-12T08:14:30.844Z,30.90
2018-06-12T08:15:30.846Z,32.80
2018-06-12T08:16:30.848Z,31.90
2018-06-12T08:17:30.850Z,31.20
2018-06-12T08:18:30.863Z,31.50
2018-06-12T08:19:30.850Z,32.10
2018-06-12T08:20:30.858Z,33.20
2018-06-12T08:21:30.853Z,31.90
2018-06-12T08:22:30.860Z,32.50
2018-06-12T08:23:30.861Z,31.60
2018-06-12T08:24:30.863Z,35.40
2018-06-12T08:25:30.867Z,31.60
2018-06-12T08:26:30.865Z,34.10
2018-06-12T08:27:30.865Z,31.60
2018-06-12T08:28:30.873Z,32.10
2018-06-12T08:29:30.875Z,32.40
2018-06-12T08:30:30.936Z,30.50
2018-06-12T08:31:30.875Z,31.30
2018-06-12T08:32:30.879Z,30.80
2018-06-12T08:33:30.883Z,30.60
2018-06-12T08:34:30.891Z,30.70
2018-06-12T08:35:30.925Z,30.40
2018-06-12T08:36:30.895Z,30.40
2018-06-12T08:37:30.898Z,30.30
2018-06-12T08:38:30.897Z,31.60
2018-06-12T08:39:30.899Z,30.60
2018-06-12T08:40:30.906Z,31.50
2018-06-12T08:41:30.906Z,32.20
2018-06-12T08:42:30.914Z,31.90
2018-06-12T08:43:30.919Z,32.10
2018-06-12T08:44:30.916Z,32.40
2018-06-12T08:45:30.919Z,33.10
2018-06-12T08:46:30.993Z,32.40
2018-06-12T08:47:30.928Z,34.00
2018-06-12T08:48:30.930Z,33.40
2018-06-12T08:49:30.933Z,37.30
2018-06-12T08:50:30.933Z,32.30
2018-06-12T08:51:30.934Z,32.20
2018-06-12T08:52:30.937Z,31.10
2018-06-12T08:53:30.940Z,32.80
2018-06-12T08:54:30.948Z,33.30
2018-06-12T08:55:30.949Z,35.30
2018-06-12T08:56:30.955Z,34.40
2018-06-12T08:57:30.959Z,33.70
2018-06-12T08:58:30.957Z,33.50
2018-06-12T08:59:30.956Z,34.70
2018-06-12T09:00:30.963Z,35.30
2018-06-12T09:01:30.969Z,35.90
2018-06-12T09:02:30.964Z,34.00
2018-06-12T09:03:30.965Z,33.40
2018-06-12T09:04:30.971Z,33.10
2018-06-12T09:05:30.971Z,32.60
2018-06-12T09:06:30.978Z,33.90
2018-06-12T09:07:30.980Z,32.70
2018-06-12T09:08:30.983Z,32.60
2018-06-12T09:09:30.987Z,36.40
2018-06-12T09:10:30.985Z,33.80
2018-06-12T09:11:30.988Z,33.40
2018-06-12T09:12:30.990Z,34.80
2018-06-12T09:13:30.995Z,33.70
2018-06-12T09:14:31.002Z,33.30
2018-06-12T09:15:31.008Z,32.70
2018-06-12T09:16:31.002Z,32.80
2018-06-12T09:17:31.007Z,32.00
2018-06-12T09:18:31.016Z,32.30
2018-06-12T09:19:31.016Z,31.90
2018-06-12T09:20:31.020Z,34.00
2018-06-12T09:21:31.021Z,32.10
2018-06-12T09:22:31.029Z,32.80
2018-06-12T09:23:31.023Z,32.10
2018-06-12T09:24:31.028Z,30.80
2018-06-12T09:25:31.032Z,30.60
2018-06-12T09:26:31.040Z,30.40
2018-06-12T09:27:31.044Z,29.80
2018-06-12T09:28:31.058Z,29.00
2018-06-12T09:29:31.053Z,29.10
2018-06-12T09:30:31.053Z,29.40
2018-06-12T09:31:31.058Z,28.90
2018-06-12T09:32:31.066Z,27.80
2018-06-12T09:33:31.075Z,28.80
2018-06-12T09:34:31.072Z,29.10
2018-06-12T09:35:31.077Z,28.20
2018-06-12T09:36:31.081Z,27.50
2018-06-12T09:37:31.087Z,26.70
2018-06-12T09:38:31.096Z,27.10
2018-06-12T09:39:31.101Z,27.20
2018-06-12T09:40:31.108Z,26.50
2018-06-12T09:41:31.113Z,27.80
2018-06-12T09:42:31.113Z,26.70
2018-06-12T09:43:31.121Z,27.50
2018-06-12T09:44:31.129Z,27.50
2018-06-12T09:45:31.131Z,27.60
2018-06-12T09:46:31.143Z,28.10
2018-06-12T09:47:31.146Z,28.60
2018-06-12T09:48:31.149Z,28.20
2018-06-12T09:49:31.157Z,26.50
2018-06-12T09:50:31.164Z,28.30
2018-06-12T09:51:31.169Z,27.80
2018-06-12T09:52:31.176Z,28.50
2018-06-12T09:53:31.182Z,28.50
2018-06-12T09:54:31.183Z,27.90
2018-06-12T09:55:31.196Z,28.00
2018-06-12T09:56:31.192Z,28.00
2018-06-12T09:57:31.198Z,27.90
2018-06-12T09:58:31.210Z,29.20
2018-06-12T09:59:31.214Z,29.40
2018-06-12T10:00:31.221Z,29.90
2018-06-12T10:01:31.225Z,29.40
2018-06-12T10:02:31.225Z,30.10
2018-06-12T10:03:31.231Z,30.60
2018-06-12T10:04:31.238Z,29.10
2018-06-12T10:05:31.244Z,28.90
2018-06-12T10:06:31.247Z,27.90
2018-06-12T10:07:31.248Z,27.50
2018-06-12T10:08:31.255Z,25.90
2018-06-12T10:09:31.259Z,25.50
2018-06-12T10:10:31.271Z,25.90
2018-06-12T10:11:31.274Z,27.20
2018-06-12T10:12:31.282Z,26.50
2018-06-12T10:13:31.283Z,25.90
2018-06-12T10:14:31.283Z,25.50
2018-06-12T10:15:31.287Z,24.50
2018-06-12T10:16:31.292Z,26.70
2018-06-12T10:17:31.296Z,26.00
2018-06-12T10:18:31.305Z,26.40
2018-06-12T10:19:31.310Z,25.40
2018-06-12T10:20:31.310Z,24.00
2018-06-12T10:21:31.314Z,24.30
2018-06-12T10:22:31.324Z,23.10
2018-06-12T10:23:31.327Z,23.20
2018-06-12T10:24:31.333Z,22.80
2018-06-12T10:25:31.337Z,23.40
2018-06-12T10:26:31.336Z,22.90
2018-06-12T10:27:31.340Z,22.50
2018-06-12T10:28:31.344Z,22.10
2018-06-12T10:29:31.349Z,23.60
2018-06-12T10:30:31.361Z,23.00
2018-06-12T10:31:31.362Z,22.30
2018-06-12T10:32:31.369Z,23.10
2018-06-12T10:33:31.370Z,23.80
2018-06-12T10:34:31.374Z,24.50
2018-06-12T10:35:31.374Z,24.20
2018-06-12T10:36:31.383Z,23.60
2018-06-12T10:37:31.392Z,24.40
2018-06-12T10:38:31.389Z,23.50
2018-06-12T10:39:31.392Z,23.30
2018-06-12T10:40:31.395Z,23.00
2018-06-12T10:41:31.400Z,23.60
2018-06-12T10:42:31.409Z,23.50
2018-06-12T10:43:31.413Z,22.30
2018-06-12T10:44:31.438Z,22.60
2018-06-12T10:45:31.415Z,24.00
2018-06-12T10:46:31.425Z,22.80
2018-06-12T10:47:31.429Z,21.60
2018-06-12T10:48:31.436Z,20.70
2018-06-12T10:49:31.437Z,22.70
2018-06-12T10:50:31.437Z,22.10
2018-06-12T10:51:31.441Z,21.30
2018-06-12T10:52:31.452Z,21.70
2018-06-12T10:53:31.455Z,20.40
2018-06-12T10:54:31.456Z,20.60
2018-06-12T10:55:31.459Z,20.70
2018-06-12T10:56:31.478Z,20.30
2018-06-12T10:57:31.469Z,21.40
2018-06-12T10:58:31.481Z,22.20
2018-06-12T10:59:31.481Z,21.80
2018-06-12T11:00:31.487Z,22.20
2018-06-12T11:01:31.491Z,21.10
2018-06-12T11:02:31.492Z,20.80
2018-06-12T11:03:31.522Z,21.70
2018-06-12T11:04:31.501Z,20.80
2018-06-12T11:05:31.506Z,20.70
2018-06-12T11:06:31.516Z,19.90
2018-06-12T11:07:31.520Z,19.40
2018-06-12T11:08:31.520Z,19.50
2018-06-12T11:09:31.525Z,19.00
2018-06-12T11:10:31.534Z,18.90
2018-06-12T11:11:31.539Z,19.30
2018-06-12T11:12:31.542Z,19.10
2018-06-12T11:13:31.547Z,21.00
2018-06-12T11:14:31.552Z,19.10
2018-06-12T11:15:31.552Z,19.10
2018-06-12T11:16:31.556Z,19.20
2018-06-12T11:17:31.561Z,18.70
2018-06-12T11:18:31.574Z,18.20
2018-06-12T11:19:31.574Z,17.60
2018-06-12T11:20:31.580Z,19.60
2018-06-12T11:21:31.584Z,17.80
2018-06-12T11:22:31.587Z,18.40
2018-06-12T11:23:31.587Z,18.60
2018-06-12T11:24:31.596Z,19.70
2018-06-12T11:25:31.602Z,21.80
2018-06-12T11:26:31.607Z,18.70
2018-06-12T11:27:31.605Z,18.20
2018-06-12T11:28:31.609Z,18.80
2018-06-12T11:29:31.613Z,18.80
2018-06-12T11:30:31.622Z,18.90
2018-06-12T11:31:31.625Z,18.00
2018-06-12T11:32:31.630Z,18.10
2018-06-12T11:33:31.637Z,17.40
2018-06-12T11:34:31.635Z,16.90
2018-06-12T11:35:31.638Z,16.90
2018-06-12T11:36:31.642Z,16.90
2018-06-12T11:37:31.647Z,17.10
2018-06-12T11:38:31.658Z,17.10
2018-06-12T11:39:31.659Z,16.30
2018-06-12T11:40:31.660Z,16.10
2018-06-12T11:41:31.665Z,16.20
2018-06-12T11:42:31.673Z,17.10
2018-06-12T11:43:31.677Z,17.70
2018-06-12T11:44:31.681Z,16.90
2018-06-12T11:45:31.686Z,15.80
2018-06-12T11:46:31.685Z,15.70
2018-06-12T11:47:31.692Z,15.20
2018-06-12T11:48:31.697Z,15.70
2018-06-12T11:49:31.700Z,15.00
2018-06-12T11:50:31.710Z,15.30
2018-06-12T11:51:31.713Z,15.90
2018-06-12T11:52:31.717Z,15.50
2018-06-12T11:53:31.722Z,15.70
2018-06-12T11:54:31.730Z,15.90
2018-06-12T11:55:31.727Z,18.10
2018-06-12T11:56:31.740Z,16.40
2018-06-12T11:57:31.743Z,16.70
2018-06-12T11:58:31.741Z,16.60
2018-06-12T11:59:31.744Z,17.30
2018-06-12T12:00:31.750Z,16.20
2018-06-12T12:01:31.753Z,16.80
2018-06-12T12:02:31.765Z,19.00
2018-06-12T12:03:31.767Z,16.50
2018-06-12T12:04:31.770Z,17.80
2018-06-12T12:05:31.783Z,18.40
2018-06-12T12:06:31.774Z,16.20
2018-06-12T12:07:31.776Z,17.20
2018-06-12T12:08:31.780Z,16.00
2018-06-12T12:09:31.790Z,16.60
2018-06-12T12:10:31.793Z,16.10
2018-06-12T12:11:31.799Z,17.60
2018-06-12T12:12:31.794Z,16.80
2018-06-12T12:13:31.800Z,16.60
2018-06-12T12:14:31.806Z,19.90
2018-06-12T12:15:31.809Z,17.50
2018-06-12T12:16:31.814Z,17.10
2018-06-12T12:17:31.816Z,17.40
2018-06-12T12:18:31.816Z,16.90
2018-06-12T12:19:31.818Z,17.10
2018-06-12T12:20:31.821Z,17.20
2018-06-12T12:21:31.825Z,15.80
2018-06-12T12:22:31.833Z,16.00
2018-06-12T12:23:31.836Z,16.60
2018-06-12T12:24:31.838Z,16.50
2018-06-12T12:25:31.845Z,16.60
2018-06-12T12:26:31.842Z,17.40
2018-06-12T12:27:31.845Z,16.10
2018-06-12T12:28:31.855Z,18.00
2018-06-12T12:29:31.861Z,16.10
2018-06-12T12:30:31.852Z,15.70
2018-06-12T12:31:31.855Z,17.80
2018-06-12T12:32:31.859Z,16.10
2018-06-12T12:33:31.865Z,16.00
2018-06-12T12:34:31.872Z,17.30
2018-06-12T12:35:31.872Z,16.90
2018-06-12T12:36:31.874Z,18.30
2018-06-12T12:37:31.878Z,19.30
2018-06-12T12:38:31.878Z,18.10
2018-06-12T12:39:31.877Z,18.10
2018-06-12T12:40:31.882Z,17.90
2018-06-12T12:41:31.884Z,19.10
2018-06-12T12:42:31.892Z,20.40
2018-06-12T12:43:31.899Z,19.30
2018-06-12T12:44:31.891Z,20.80
2018-06-12T12:45:31.894Z,19.20
2018-06-12T12:46:31.904Z,1960.90
2018-06-12T12:47:31.903Z,1999.90
2018-06-12T12:48:31.907Z,1999.90
2018-06-12T12:49:31.910Z,1999.90
2018-06-12T12:50:31.913Z,1999.90
2018-06-12T12:51:31.909Z,1999.90
2018-06-12T12:52:31.912Z,1999.90
2018-06-12T12:53:31.916Z,1999.90